sensor_id;sensor_type;location;lat;lon;timestamp;temperature;humidity
19972;DHT22;10147;16.402;102.848;2023-06-10T00:01:32;27.20;99.90
19972;DHT22;10147;16.402;102.848;2023-06-10T00:04:06;27.30;99.90
19972;DHT22;10147;16.402;102.848;2023-06-10T00:06:36;27.40;99.90
19972;DHT22;10147;16.402;102.848;2023-06-10T00:09:08;27.30;99.90
19972;DHT22;10147;16.402;102.848;2023-06-10T00:11:40;27.30;99.90
19972;DHT22;10147;16.402;102.848;2023-06-10T00:14:11;27.30;99.90
19972;DHT22;10147;16.402;102.848;2023-06-10T00:16:41;27.20;99.90
19972;DHT22;10147;16.402;102.848;2023-06-10T00:19:14;27.30;99.90
19972;DHT22;10147;16.402;102.848;2023-06-10T00:21:44;27.30;99.90
19972;DHT22;10147;16.402;102.848;2023-06-10T00:24:14;27.30;99.90
19972;DHT22;10147;16.402;102.848;2023-06-10T00:26:45;27.30;99.90
19972;DHT22;10147;16.402;102.848;2023-06-10T00:29:15;27.40;99.90
19972;DHT22;10147;16.402;102.848;2023-06-10T00:31:46;27.40;99.90
19972;DHT22;10147;16.402;102.848;2023-06-10T00:34:16;27.40;99.90
19972;DHT22;10147;16.402;102.848;2023-06-10T00:36:46;27.50;99.90
19972;DHT22;10147;16.402;102.848;2023-06-10T00:39:16;27.50;99.90
19972;DHT22;10147;16.402;102.848;2023-06-10T00:41:46;27.60;99.90
19972;DHT22;10147;16.402;102.848;2023-06-10T00:44:16;27.60;99.90
19972;DHT22;10147;16.402;102.848;2023-06-10T00:46:46;27.60;99.90
19972;DHT22;10147;16.402;102.848;2023-06-10T00:49:18;27.70;99.90
19972;DHT22;10147;16.402;102.848;2023-06-10T00:51:48;27.70;99.90
19972;DHT22;10147;16.402;102.848;2023-06-10T00:54:18;27.70;99.90
19972;DHT22;10147;16.402;102.848;2023-06-10T00:56:49;27.70;99.90
19972;DHT22;10147;16.402;102.848;2023-06-10T00:59:20;27.70;99.90
19972;DHT22;10147;16.402;102.848;2023-06-10T01:01:51;27.80;99.90
19972;DHT22;10147;16.402;102.848;2023-06-10T01:04:22;27.70;99.90
19972;DHT22;10147;16.402;102.848;2023-06-10T01:07:02;27.70;99.90
19972;DHT22;10147;16.402;102.848;2023-06-10T01:09:59;27.70;99.90
19972;DHT22;10147;16.402;102.848;2023-06-10T01:12:52;27.80;99.90
19972;DHT22;10147;16.402;102.848;2023-06-10T01:15:26;27.90;99.90
19972;DHT22;10147;16.402;102.848;2023-06-10T01:18:09;28.00;99.90
19972;DHT22;10147;16.402;102.848;2023-06-10T01:20:45;28.00;99.90
19972;DHT22;10147;16.402;102.848;2023-06-10T01:23:18;28.10;99.90
19972;DHT22;10147;16.402;102.848;2023-06-10T01:26:04;28.20;99.90
19972;DHT22;10147;16.402;102.848;2023-06-10T01:28:47;28.20;99.90
19972;DHT22;10147;16.402;102.848;2023-06-10T01:34:23;28.30;99.90
19972;DHT22;10147;16.402;102.848;2023-06-10T01:36:54;28.20;99.90
19972;DHT22;10147;16.402;102.848;2023-06-10T01:39:26;28.20;99.90
19972;DHT22;10147;16.402;102.848;2023-06-10T01:41:57;28.20;99.90
19972;DHT22;10147;16.402;102.848;2023-06-10T01:44:27;28.20;99.90
19972;DHT22;10147;16.402;102.848;2023-06-10T01:46:57;28.30;99.90
19972;DHT22;10147;16.402;102.848;2023-06-10T01:49:28;28.30;99.90
19972;DHT22;10147;16.402;102.848;2023-06-10T01:51:58;28.30;99.90
19972;DHT22;10147;16.402;102.848;2023-06-10T01:54:28;28.30;99.90
19972;DHT22;10147;16.402;102.848;2023-06-10T01:56:58;28.30;99.90
19972;DHT22;10147;16.402;102.848;2023-06-10T01:59:28;28.40;99.90
19972;DHT22;10147;16.402;102.848;2023-06-10T02:01:58;28.40;99.90
19972;DHT22;10147;16.402;102.848;2023-06-10T02:04:28;28.50;99.90
19972;DHT22;10147;16.402;102.848;2023-06-10T02:07:00;28.60;99.90
19972;DHT22;10147;16.402;102.848;2023-06-10T02:09:33;28.80;99.90
19972;DHT22;10147;16.402;102.848;2023-06-10T02:12:05;28.90;99.90
19972;DHT22;10147;16.402;102.848;2023-06-10T02:14:35;28.90;99.90
19972;DHT22;10147;16.402;102.848;2023-06-10T02:17:05;28.90;99.90
19972;DHT22;10147;16.402;102.848;2023-06-10T02:19:36;28.90;99.90
19972;DHT22;10147;16.402;102.848;2023-06-10T02:22:06;29.00;99.90
19972;DHT22;10147;16.402;102.848;2023-06-10T02:24:37;29.10;99.90
19972;DHT22;10147;16.402;102.848;2023-06-10T02:27:10;29.20;99.90
19972;DHT22;10147;16.402;102.848;2023-06-10T02:29:40;29.30;99.90
19972;DHT22;10147;16.402;102.848;2023-06-10T02:32:11;29.40;99.90
19972;DHT22;10147;16.402;102.848;2023-06-10T02:34:42;29.40;99.90
19972;DHT22;10147;16.402;102.848;2023-06-10T02:37:13;29.60;99.90
19972;DHT22;10147;16.402;102.848;2023-06-10T02:39:44;29.70;99.90
19972;DHT22;10147;16.402;102.848;2023-06-10T02:42:15;29.70;99.90
19972;DHT22;10147;16.402;102.848;2023-06-10T02:44:45;29.60;99.90
19972;DHT22;10147;16.402;102.848;2023-06-10T02:47:22;29.70;99.90
19972;DHT22;10147;16.402;102.848;2023-06-10T02:49:52;29.70;99.90
19972;DHT22;10147;16.402;102.848;2023-06-10T02:52:22;29.80;99.90
19972;DHT22;10147;16.402;102.848;2023-06-10T02:54:53;29.80;99.90
19972;DHT22;10147;16.402;102.848;2023-06-10T02:57:22;29.90;99.90
19972;DHT22;10147;16.402;102.848;2023-06-10T02:59:53;30.00;99.90
19972;DHT22;10147;16.402;102.848;2023-06-10T03:02:23;30.10;99.90
19972;DHT22;10147;16.402;102.848;2023-06-10T03:04:58;30.10;99.90
19972;DHT22;10147;16.402;102.848;2023-06-10T03:07:28;30.40;99.90
19972;DHT22;10147;16.402;102.848;2023-06-10T03:10:00;30.50;99.90
19972;DHT22;10147;16.402;102.848;2023-06-10T03:12:30;30.50;99.90
19972;DHT22;10147;16.402;102.848;2023-06-10T03:15:01;30.60;99.90
19972;DHT22;10147;16.402;102.848;2023-06-10T03:17:33;30.70;99.90
19972;DHT22;10147;16.402;102.848;2023-06-10T03:20:04;30.70;99.90
19972;DHT22;10147;16.402;102.848;2023-06-10T03:22:41;30.70;99.90
19972;DHT22;10147;16.402;102.848;2023-06-10T03:25:11;30.80;99.90
19972;DHT22;10147;16.402;102.848;2023-06-10T03:27:48;30.70;99.90
19972;DHT22;10147;16.402;102.848;2023-06-10T03:30:19;30.90;99.90
19972;DHT22;10147;16.402;102.848;2023-06-10T03:32:50;30.90;99.90
19972;DHT22;10147;16.402;102.848;2023-06-10T03:35:24;31.10;99.90
19972;DHT22;10147;16.402;102.848;2023-06-10T03:37:54;31.20;99.90
19972;DHT22;10147;16.402;102.848;2023-06-10T03:40:24;31.10;99.90
19972;DHT22;10147;16.402;102.848;2023-06-10T03:42:55;31.20;99.90
19972;DHT22;10147;16.402;102.848;2023-06-10T03:45:24;31.10;99.90
19972;DHT22;10147;16.402;102.848;2023-06-10T03:47:58;31.20;99.90
19972;DHT22;10147;16.402;102.848;2023-06-10T03:50:36;31.40;99.90
19972;DHT22;10147;16.402;102.848;2023-06-10T03:53:07;31.50;99.90
19972;DHT22;10147;16.402;102.848;2023-06-10T03:55:39;31.50;99.90
19972;DHT22;10147;16.402;102.848;2023-06-10T03:58:10;31.50;99.90
19972;DHT22;10147;16.402;102.848;2023-06-10T04:00:46;31.50;99.90
19972;DHT22;10147;16.402;102.848;2023-06-10T04:03:37;31.50;99.90
19972;DHT22;10147;16.402;102.848;2023-06-10T04:06:09;31.80;99.90
19972;DHT22;10147;16.402;102.848;2023-06-10T04:08:39;32.10;99.90
19972;DHT22;10147;16.402;102.848;2023-06-10T04:11:10;32.10;99.90
19972;DHT22;10147;16.402;102.848;2023-06-10T04:13:40;32.40;99.90
19972;DHT22;10147;16.402;102.848;2023-06-10T04:16:12;32.60;99.90
19972;DHT22;10147;16.402;102.848;2023-06-10T04:18:42;32.50;99.90
19972;DHT22;10147;16.402;102.848;2023-06-10T04:21:12;32.40;99.90
19972;DHT22;10147;16.402;102.848;2023-06-10T04:23:42;32.60;99.90
19972;DHT22;10147;16.402;102.848;2023-06-10T04:26:12;32.70;99.90
19972;DHT22;10147;16.402;102.848;2023-06-10T04:28:46;32.40;99.90
19972;DHT22;10147;16.402;102.848;2023-06-10T04:31:17;32.50;99.90
19972;DHT22;10147;16.402;102.848;2023-06-10T04:33:48;32.40;99.90
19972;DHT22;10147;16.402;102.848;2023-06-10T04:36:18;32.60;99.90
19972;DHT22;10147;16.402;102.848;2023-06-10T04:38:48;32.50;99.90
19972;DHT22;10147;16.402;102.848;2023-06-10T04:41:19;32.70;99.90
19972;DHT22;10147;16.402;102.848;2023-06-10T04:43:49;32.90;99.90
19972;DHT22;10147;16.402;102.848;2023-06-10T04:46:20;33.00;99.90
19972;DHT22;10147;16.402;102.848;2023-06-10T04:48:50;32.80;99.90
19972;DHT22;10147;16.402;102.848;2023-06-10T04:51:21;33.00;99.90
19972;DHT22;10147;16.402;102.848;2023-06-10T04:53:51;33.20;99.90
19972;DHT22;10147;16.402;102.848;2023-06-10T04:56:21;33.20;99.90
19972;DHT22;10147;16.402;102.848;2023-06-10T04:58:52;33.10;99.90
19972;DHT22;10147;16.402;102.848;2023-06-10T05:01:22;33.00;99.90
19972;DHT22;10147;16.402;102.848;2023-06-10T05:03:52;33.20;99.90
19972;DHT22;10147;16.402;102.848;2023-06-10T05:06:22;33.30;99.90
19972;DHT22;10147;16.402;102.848;2023-06-10T05:08:52;33.50;99.90
19972;DHT22;10147;16.402;102.848;2023-06-10T05:11:22;33.50;99.90
19972;DHT22;10147;16.402;102.848;2023-06-10T05:13:52;33.20;99.90
19972;DHT22;10147;16.402;102.848;2023-06-10T05:16:22;33.30;99.90
19972;DHT22;10147;16.402;102.848;2023-06-10T05:18:52;33.20;99.90
19972;DHT22;10147;16.402;102.848;2023-06-10T05:21:22;33.40;99.90
19972;DHT22;10147;16.402;102.848;2023-06-10T05:23:52;33.20;99.90
19972;DHT22;10147;16.402;102.848;2023-06-10T05:26:22;33.50;99.90
19972;DHT22;10147;16.402;102.848;2023-06-10T05:28:52;33.70;99.90
19972;DHT22;10147;16.402;102.848;2023-06-10T05:31:22;33.40;99.90
19972;DHT22;10147;16.402;102.848;2023-06-10T05:33:52;33.70;99.90
19972;DHT22;10147;16.402;102.848;2023-06-10T05:36:22;34.00;99.90
19972;DHT22;10147;16.402;102.848;2023-06-10T05:38:54;33.70;99.90
19972;DHT22;10147;16.402;102.848;2023-06-10T05:41:24;34.10;99.90
19972;DHT22;10147;16.402;102.848;2023-06-10T05:43:55;34.00;99.90
19972;DHT22;10147;16.402;102.848;2023-06-10T05:46:24;33.90;99.90
19972;DHT22;10147;16.402;102.848;2023-06-10T05:48:55;33.80;99.90
19972;DHT22;10147;16.402;102.848;2023-06-10T05:51:25;33.80;99.90
19972;DHT22;10147;16.402;102.848;2023-06-10T05:53:57;33.80;99.90
19972;DHT22;10147;16.402;102.848;2023-06-10T05:56:27;33.90;99.90
19972;DHT22;10147;16.402;102.848;2023-06-10T05:58:57;34.00;99.90
19972;DHT22;10147;16.402;102.848;2023-06-10T06:01:27;34.10;99.90
19972;DHT22;10147;16.402;102.848;2023-06-10T06:03:57;34.20;99.90
19972;DHT22;10147;16.402;102.848;2023-06-10T06:06:27;34.30;99.90
19972;DHT22;10147;16.402;102.848;2023-06-10T06:09:07;34.20;99.90
19972;DHT22;10147;16.402;102.848;2023-06-10T06:11:37;34.00;99.90
19972;DHT22;10147;16.402;102.848;2023-06-10T06:14:07;33.80;99.90
19972;DHT22;10147;16.402;102.848;2023-06-10T06:16:37;33.60;99.90
19972;DHT22;10147;16.402;102.848;2023-06-10T06:19:07;33.60;99.90
19972;DHT22;10147;16.402;102.848;2023-06-10T06:21:39;33.80;99.90
19972;DHT22;10147;16.402;102.848;2023-06-10T06:24:09;34.00;99.90
19972;DHT22;10147;16.402;102.848;2023-06-10T06:26:39;34.20;99.90
19972;DHT22;10147;16.402;102.848;2023-06-10T06:29:09;34.30;99.90
19972;DHT22;10147;16.402;102.848;2023-06-10T06:31:39;34.50;99.90
19972;DHT22;10147;16.402;102.848;2023-06-10T06:34:09;34.60;99.90
19972;DHT22;10147;16.402;102.848;2023-06-10T06:36:43;34.50;99.90
19972;DHT22;10147;16.402;102.848;2023-06-10T06:39:13;34.30;99.90
19972;DHT22;10147;16.402;102.848;2023-06-10T06:41:43;33.90;99.90
19972;DHT22;10147;16.402;102.848;2023-06-10T06:44:13;34.30;99.90
19972;DHT22;10147;16.402;102.848;2023-06-10T06:46:44;34.40;99.90
19972;DHT22;10147;16.402;102.848;2023-06-10T06:49:14;34.40;99.90
19972;DHT22;10147;16.402;102.848;2023-06-10T06:51:45;34.20;99.90
19972;DHT22;10147;16.402;102.848;2023-06-10T06:54:16;34.20;99.90
19972;DHT22;10147;16.402;102.848;2023-06-10T06:56:46;34.50;99.90
19972;DHT22;10147;16.402;102.848;2023-06-10T06:59:16;34.60;99.90
19972;DHT22;10147;16.402;102.848;2023-06-10T07:01:48;34.70;99.90
19972;DHT22;10147;16.402;102.848;2023-06-10T07:04:19;34.70;99.90
19972;DHT22;10147;16.402;102.848;2023-06-10T07:06:51;34.60;99.90
19972;DHT22;10147;16.402;102.848;2023-06-10T07:09:21;34.70;99.90
19972;DHT22;10147;16.402;102.848;2023-06-10T07:11:51;34.70;99.90
19972;DHT22;10147;16.402;102.848;2023-06-10T07:14:21;34.70;99.90
19972;DHT22;10147;16.402;102.848;2023-06-10T07:16:51;34.80;99.90
19972;DHT22;10147;16.402;102.848;2023-06-10T07:19:21;34.90;99.90
19972;DHT22;10147;16.402;102.848;2023-06-10T07:21:51;34.80;99.90
19972;DHT22;10147;16.402;102.848;2023-06-10T07:24:21;34.70;99.90
19972;DHT22;10147;16.402;102.848;2023-06-10T07:26:51;34.90;99.90
19972;DHT22;10147;16.402;102.848;2023-06-10T07:29:21;35.00;99.90
19972;DHT22;10147;16.402;102.848;2023-06-10T07:31:51;35.00;99.90
19972;DHT22;10147;16.402;102.848;2023-06-10T07:34:22;34.80;99.90
19972;DHT22;10147;16.402;102.848;2023-06-10T07:36:52;34.60;99.90
19972;DHT22;10147;16.402;102.848;2023-06-10T07:39:22;34.80;99.90
19972;DHT22;10147;16.402;102.848;2023-06-10T07:41:52;34.60;99.90
19972;DHT22;10147;16.402;102.848;2023-06-10T07:44:24;34.90;99.90
19972;DHT22;10147;16.402;102.848;2023-06-10T07:46:54;35.20;99.90
19972;DHT22;10147;16.402;102.848;2023-06-10T07:49:25;35.20;99.90
19972;DHT22;10147;16.402;102.848;2023-06-10T07:51:56;35.30;99.90
19972;DHT22;10147;16.402;102.848;2023-06-10T07:54:25;35.40;99.90
19972;DHT22;10147;16.402;102.848;2023-06-10T07:56:57;35.00;99.90
19972;DHT22;10147;16.402;102.848;2023-06-10T07:59:27;34.80;99.90
19972;DHT22;10147;16.402;102.848;2023-06-10T08:01:57;34.70;99.90
19972;DHT22;10147;16.402;102.848;2023-06-10T08:04:27;34.60;99.90
19972;DHT22;10147;16.402;102.848;2023-06-10T08:06:57;34.30;99.90
19972;DHT22;10147;16.402;102.848;2023-06-10T08:09:27;34.20;99.90
19972;DHT22;10147;16.402;102.848;2023-06-10T08:11:57;34.30;99.90
19972;DHT22;10147;16.402;102.848;2023-06-10T08:14:27;34.40;99.90
19972;DHT22;10147;16.402;102.848;2023-06-10T08:16:57;34.70;99.90
19972;DHT22;10147;16.402;102.848;2023-06-10T08:19:27;34.70;99.90
19972;DHT22;10147;16.402;102.848;2023-06-10T08:21:57;34.90;99.90
19972;DHT22;10147;16.402;102.848;2023-06-10T08:24:27;34.90;99.90
19972;DHT22;10147;16.402;102.848;2023-06-10T08:26:57;34.80;99.90
19972;DHT22;10147;16.402;102.848;2023-06-10T08:29:27;34.80;99.90
19972;DHT22;10147;16.402;102.848;2023-06-10T08:31:58;34.90;99.90
19972;DHT22;10147;16.402;102.848;2023-06-10T08:34:28;34.80;99.90
19972;DHT22;10147;16.402;102.848;2023-06-10T08:36:59;34.60;99.90
19972;DHT22;10147;16.402;102.848;2023-06-10T08:39:28;34.40;99.90
19972;DHT22;10147;16.402;102.848;2023-06-10T08:42:17;34.60;99.90
19972;DHT22;10147;16.402;102.848;2023-06-10T08:44:54;34.70;99.90
19972;DHT22;10147;16.402;102.848;2023-06-10T08:47:31;34.60;99.90
19972;DHT22;10147;16.402;102.848;2023-06-10T08:50:08;34.60;99.90
19972;DHT22;10147;16.402;102.848;2023-06-10T08:52:43;34.70;99.90
19972;DHT22;10147;16.402;102.848;2023-06-10T08:55:27;34.60;99.90
19972;DHT22;10147;16.402;102.848;2023-06-10T08:58:01;34.50;99.90
19972;DHT22;10147;16.402;102.848;2023-06-10T09:00:32;34.70;99.90
19972;DHT22;10147;16.402;102.848;2023-06-10T09:03:05;34.70;99.90
19972;DHT22;10147;16.402;102.848;2023-06-10T09:05:38;34.50;99.90
19972;DHT22;10147;16.402;102.848;2023-06-10T09:08:09;34.40;99.90
19972;DHT22;10147;16.402;102.848;2023-06-10T09:10:39;34.30;99.90
19972;DHT22;10147;16.402;102.848;2023-06-10T09:13:09;34.50;99.90
19972;DHT22;10147;16.402;102.848;2023-06-10T09:15:40;34.60;99.90
19972;DHT22;10147;16.402;102.848;2023-06-10T09:18:11;34.70;99.90
19972;DHT22;10147;16.402;102.848;2023-06-10T09:20:42;34.60;99.90
19972;DHT22;10147;16.402;102.848;2023-06-10T09:23:13;34.50;99.90
19972;DHT22;10147;16.402;102.848;2023-06-10T09:25:44;34.30;99.90
19972;DHT22;10147;16.402;102.848;2023-06-10T09:28:15;34.20;99.90
19972;DHT22;10147;16.402;102.848;2023-06-10T09:30:46;33.90;99.90
19972;DHT22;10147;16.402;102.848;2023-06-10T09:33:16;33.80;99.90
19972;DHT22;10147;16.402;102.848;2023-06-10T09:35:48;33.80;99.90
19972;DHT22;10147;16.402;102.848;2023-06-10T09:38:22;33.80;99.90
19972;DHT22;10147;16.402;102.848;2023-06-10T09:40:53;33.80;99.90
19972;DHT22;10147;16.402;102.848;2023-06-10T09:43:39;33.70;99.90
19972;DHT22;10147;16.402;102.848;2023-06-10T09:46:19;33.60;99.90
19972;DHT22;10147;16.402;102.848;2023-06-10T09:48:50;33.20;99.90
19972;DHT22;10147;16.402;102.848;2023-06-10T09:51:19;32.60;99.90
19972;DHT22;10147;16.402;102.848;2023-06-10T09:53:52;32.30;99.90
19972;DHT22;10147;16.402;102.848;2023-06-10T09:56:22;32.00;99.90
19972;DHT22;10147;16.402;102.848;2023-06-10T09:59:03;32.10;99.90
19972;DHT22;10147;16.402;102.848;2023-06-10T10:01:35;31.80;99.90
19972;DHT22;10147;16.402;102.848;2023-06-10T10:04:06;31.50;99.90
19972;DHT22;10147;16.402;102.848;2023-06-10T10:06:37;31.70;99.90
19972;DHT22;10147;16.402;102.848;2023-06-10T10:09:07;31.40;99.90
19972;DHT22;10147;16.402;102.848;2023-06-10T10:11:37;31.40;99.90
19972;DHT22;10147;16.402;102.848;2023-06-10T10:14:08;31.10;99.90
19972;DHT22;10147;16.402;102.848;2023-06-10T10:16:41;31.20;99.90
19972;DHT22;10147;16.402;102.848;2023-06-10T10:19:19;30.90;99.90
19972;DHT22;10147;16.402;102.848;2023-06-10T10:21:54;30.70;99.90
19972;DHT22;10147;16.402;102.848;2023-06-10T10:24:36;30.70;99.90
19972;DHT22;10147;16.402;102.848;2023-06-10T10:27:14;30.80;99.90
19972;DHT22;10147;16.402;102.848;2023-06-10T10:29:48;30.70;99.90
19972;DHT22;10147;16.402;102.848;2023-06-10T10:35:21;30.80;99.90
19972;DHT22;10147;16.402;102.848;2023-06-10T10:37:54;30.90;99.90
19972;DHT22;10147;16.402;102.848;2023-06-10T10:40:25;30.70;99.90
19972;DHT22;10147;16.402;102.848;2023-06-10T10:42:59;30.60;99.90
19972;DHT22;10147;16.402;102.848;2023-06-10T10:45:30;30.40;99.90
19972;DHT22;10147;16.402;102.848;2023-06-10T10:48:08;30.30;99.90
19972;DHT22;10147;16.402;102.848;2023-06-10T10:50:42;30.10;99.90
19972;DHT22;10147;16.402;102.848;2023-06-10T10:53:11;30.10;99.90
19972;DHT22;10147;16.402;102.848;2023-06-10T10:56:15;30.00;99.90
19972;DHT22;10147;16.402;102.848;2023-06-10T10:59:07;30.00;99.90
19972;DHT22;10147;16.402;102.848;2023-06-10T11:01:43;29.60;99.90
19972;DHT22;10147;16.402;102.848;2023-06-10T11:04:18;28.90;99.90
19972;DHT22;10147;16.402;102.848;2023-06-10T11:06:54;28.90;99.90
19972;DHT22;10147;16.402;102.848;2023-06-10T11:09:26;28.70;99.90
19972;DHT22;10147;16.402;102.848;2023-06-10T11:12:00;28.80;99.90
19972;DHT22;10147;16.402;102.848;2023-06-10T11:14:30;29.00;99.90
19972;DHT22;10147;16.402;102.848;2023-06-10T11:17:18;28.90;99.90
19972;DHT22;10147;16.402;102.848;2023-06-10T11:19:49;28.70;99.90
19972;DHT22;10147;16.402;102.848;2023-06-10T11:22:19;28.50;99.90
19972;DHT22;10147;16.402;102.848;2023-06-10T11:24:53;28.50;99.90
19972;DHT22;10147;16.402;102.848;2023-06-10T11:27:23;28.40;99.90
19972;DHT22;10147;16.402;102.848;2023-06-10T11:30:19;28.20;99.90
19972;DHT22;10147;16.402;102.848;2023-06-10T11:32:51;28.20;99.90
19972;DHT22;10147;16.402;102.848;2023-06-10T11:35:24;28.30;99.90
19972;DHT22;10147;16.402;102.848;2023-06-10T11:37:54;28.10;99.90
19972;DHT22;10147;16.402;102.848;2023-06-10T11:40:24;28.00;99.90
19972;DHT22;10147;16.402;102.848;2023-06-10T11:42:54;27.90;99.90
19972;DHT22;10147;16.402;102.848;2023-06-10T11:45:24;27.90;99.90
19972;DHT22;10147;16.402;102.848;2023-06-10T11:47:58;27.80;99.90
19972;DHT22;10147;16.402;102.848;2023-06-10T11:50:31;28.00;99.90
19972;DHT22;10147;16.402;102.848;2023-06-10T11:53:02;27.70;99.90
19972;DHT22;10147;16.402;102.848;2023-06-10T11:55:51;27.80;99.90
19972;DHT22;10147;16.402;102.848;2023-06-10T11:58:23;27.80;99.90
19972;DHT22;10147;16.402;102.848;2023-06-10T12:00:54;27.80;99.90
19972;DHT22;10147;16.402;102.848;2023-06-10T12:03:26;28.00;99.90
19972;DHT22;10147;16.402;102.848;2023-06-10T12:06:06;28.20;99.90
19972;DHT22;10147;16.402;102.848;2023-06-10T12:08:42;28.50;99.90
19972;DHT22;10147;16.402;102.848;2023-06-10T12:11:13;28.30;99.90
19972;DHT22;10147;16.402;102.848;2023-06-10T12:13:47;28.20;99.90
19972;DHT22;10147;16.402;102.848;2023-06-10T12:16:20;28.20;99.90
19972;DHT22;10147;16.402;102.848;2023-06-10T12:18:50;28.30;99.90
19972;DHT22;10147;16.402;102.848;2023-06-10T12:21:23;28.30;99.90
19972;DHT22;10147;16.402;102.848;2023-06-10T12:24:13;28.40;99.90
19972;DHT22;10147;16.402;102.848;2023-06-10T12:26:45;28.30;99.90
19972;DHT22;10147;16.402;102.848;2023-06-10T12:29:20;28.10;99.90
19972;DHT22;10147;16.402;102.848;2023-06-10T12:32:00;27.90;99.90
19972;DHT22;10147;16.402;102.848;2023-06-10T12:34:38;27.70;99.90
19972;DHT22;10147;16.402;102.848;2023-06-10T12:37:13;27.70;99.90
19972;DHT22;10147;16.402;102.848;2023-06-10T12:39:51;27.70;99.90
19972;DHT22;10147;16.402;102.848;2023-06-10T12:42:23;27.80;99.90
19972;DHT22;10147;16.402;102.848;2023-06-10T12:44:56;27.80;99.90
19972;DHT22;10147;16.402;102.848;2023-06-10T12:47:34;27.80;99.90
19972;DHT22;10147;16.402;102.848;2023-06-10T12:50:11;27.90;99.90
19972;DHT22;10147;16.402;102.848;2023-06-10T12:52:41;28.20;99.90
19972;DHT22;10147;16.402;102.848;2023-06-10T12:55:12;28.50;99.90
19972;DHT22;10147;16.402;102.848;2023-06-10T12:57:49;28.60;99.90
19972;DHT22;10147;16.402;102.848;2023-06-10T13:00:20;28.70;99.90
19972;DHT22;10147;16.402;102.848;2023-06-10T13:02:50;28.50;99.90
19972;DHT22;10147;16.402;102.848;2023-06-10T13:05:20;28.10;99.90
19972;DHT22;10147;16.402;102.848;2023-06-10T13:07:50;28.00;99.90
19972;DHT22;10147;16.402;102.848;2023-06-10T13:10:21;28.00;99.90
19972;DHT22;10147;16.402;102.848;2023-06-10T13:12:53;27.90;99.90
19972;DHT22;10147;16.402;102.848;2023-06-10T13:15:24;28.10;99.90
19972;DHT22;10147;16.402;102.848;2023-06-10T13:17:56;28.20;99.90
19972;DHT22;10147;16.402;102.848;2023-06-10T13:20:26;28.10;99.90
19972;DHT22;10147;16.402;102.848;2023-06-10T13:22:56;28.00;99.90
19972;DHT22;10147;16.402;102.848;2023-06-10T13:25:25;28.20;99.90
19972;DHT22;10147;16.402;102.848;2023-06-10T13:27:56;28.30;99.90
19972;DHT22;10147;16.402;102.848;2023-06-10T13:30:26;28.30;99.90
19972;DHT22;10147;16.402;102.848;2023-06-10T13:32:56;28.40;99.90
19972;DHT22;10147;16.402;102.848;2023-06-10T13:35:27;28.30;99.90
19972;DHT22;10147;16.402;102.848;2023-06-10T13:37:57;28.10;99.90
19972;DHT22;10147;16.402;102.848;2023-06-10T13:40:27;28.10;99.90
19972;DHT22;10147;16.402;102.848;2023-06-10T13:42:57;28.10;99.90
19972;DHT22;10147;16.402;102.848;2023-06-10T13:45:27;28.10;99.90
19972;DHT22;10147;16.402;102.848;2023-06-10T13:47:57;28.10;99.90
19972;DHT22;10147;16.402;102.848;2023-06-10T13:50:29;28.10;99.90
19972;DHT22;10147;16.402;102.848;2023-06-10T13:52:59;28.10;99.90
19972;DHT22;10147;16.402;102.848;2023-06-10T13:55:31;28.10;99.90
19972;DHT22;10147;16.402;102.848;2023-06-10T13:58:01;28.10;99.90
19972;DHT22;10147;16.402;102.848;2023-06-10T14:00:32;28.20;99.90
19972;DHT22;10147;16.402;102.848;2023-06-10T14:03:02;28.10;99.90
19972;DHT22;10147;16.402;102.848;2023-06-10T14:05:33;28.00;99.90
19972;DHT22;10147;16.402;102.848;2023-06-10T14:08:04;28.10;99.90
19972;DHT22;10147;16.402;102.848;2023-06-10T14:10:34;28.00;99.90
19972;DHT22;10147;16.402;102.848;2023-06-10T14:13:04;28.20;99.90
19972;DHT22;10147;16.402;102.848;2023-06-10T14:15:34;28.10;99.90
19972;DHT22;10147;16.402;102.848;2023-06-10T14:18:05;28.00;99.90
19972;DHT22;10147;16.402;102.848;2023-06-10T14:20:35;28.00;99.90
19972;DHT22;10147;16.402;102.848;2023-06-10T14:23:06;28.00;99.90
19972;DHT22;10147;16.402;102.848;2023-06-10T14:25:35;28.00;99.90
19972;DHT22;10147;16.402;102.848;2023-06-10T14:28:06;27.80;99.90
19972;DHT22;10147;16.402;102.848;2023-06-10T14:30:35;27.60;99.90
19972;DHT22;10147;16.402;102.848;2023-06-10T14:33:06;27.50;99.90
19972;DHT22;10147;16.402;102.848;2023-06-10T14:35:36;27.40;99.90
19972;DHT22;10147;16.402;102.848;2023-06-10T14:38:06;27.70;99.90
19972;DHT22;10147;16.402;102.848;2023-06-10T14:40:36;27.60;99.90
19972;DHT22;10147;16.402;102.848;2023-06-10T14:43:06;27.50;99.90
19972;DHT22;10147;16.402;102.848;2023-06-10T14:45:40;27.30;99.90
19972;DHT22;10147;16.402;102.848;2023-06-10T14:48:10;27.60;99.90
19972;DHT22;10147;16.402;102.848;2023-06-10T14:50:42;27.30;99.90
19972;DHT22;10147;16.402;102.848;2023-06-10T14:53:14;27.40;99.90
19972;DHT22;10147;16.402;102.848;2023-06-10T14:55:44;27.40;99.90
19972;DHT22;10147;16.402;102.848;2023-06-10T14:58:15;27.70;99.90
19972;DHT22;10147;16.402;102.848;2023-06-10T15:00:45;27.70;99.90
19972;DHT22;10147;16.402;102.848;2023-06-10T15:03:15;27.60;99.90
19972;DHT22;10147;16.402;102.848;2023-06-10T15:05:45;27.70;99.90
19972;DHT22;10147;16.402;102.848;2023-06-10T15:08:16;27.70;99.90
19972;DHT22;10147;16.402;102.848;2023-06-10T15:10:46;27.70;99.90
19972;DHT22;10147;16.402;102.848;2023-06-10T15:13:18;27.70;99.90
19972;DHT22;10147;16.402;102.848;2023-06-10T15:15:47;27.60;99.90
19972;DHT22;10147;16.402;102.848;2023-06-10T15:18:17;27.60;99.90
19972;DHT22;10147;16.402;102.848;2023-06-10T15:20:47;27.50;99.90
19972;DHT22;10147;16.402;102.848;2023-06-10T15:23:19;27.60;99.90
19972;DHT22;10147;16.402;102.848;2023-06-10T15:25:49;27.60;99.90
19972;DHT22;10147;16.402;102.848;2023-06-10T15:28:19;27.60;99.90
19972;DHT22;10147;16.402;102.848;2023-06-10T15:30:50;27.60;99.90
19972;DHT22;10147;16.402;102.848;2023-06-10T15:33:20;27.60;99.90
19972;DHT22;10147;16.402;102.848;2023-06-10T15:35:50;27.60;99.90
19972;DHT22;10147;16.402;102.848;2023-06-10T15:38:22;27.50;99.90